Terminal Aerodrome Forecast
Issued by NWS Duluth, MN

Current Version | Previous Version | Text Only | Print | Product List | Glossary On
Versions: 1 2 3 4 5 6 7 8 9 10 11 12 13 14 15 16 17 18 19 20 21 22 23 24
000
FTUS43 KDLH 262300
TAFINL
TAF
KINL 262339Z 2700/2724 34008KT P6SM OVC010
     FM270300 32003KT P6SM OVC010
      TEMPO 2709/2713 4SM BR OVC008
     FM271600 17004KT P6SM BKN015
     FM271900 17007KT P6SM SCT015 BKN150=

USA.gov is the U.S. government's official web portal to all federal, state and local government web resources and services.